Pagrindinis puslapis
METAR-TAF:

METAR-TAF

Oro uostai :

Hafar Al-Batin, Saudo Arabija

platuma: 27-54N, ilguma: 045-32E, Aukštis: 413 m

METAR: trūkstamas

Laikas: 14:09 (11:09 UTC)

Prognozė

Ataskaita buvo paskelbta 6 valandos ir 9 minutes, ne 05:00 UTC
Prognozė galioja nuo 17 metu 06 UTC su 17 metu 20 UTC
Vėjas 10 kt iš Pietvakarių
Matomumas: 7000 m
Tapsmas
nuo 17 metu 12 UTC su 17 metu 14 UTC
Vėjas 8 kt iš Šiaurės

TAF: OEKK 170500Z 1706/1720 22010KT 7000 NSC BECMG 1712/1714 36008KT

Orai ataskaitas ir orų prognozės (METAR, TAF).

turimą stotys yra geltonos ir raudonos taškus žemėlapyje.

Perkelti pele per norėdami pamatyti stoties vardą.

Tada spustelėkite, norėdami matyti oro stebėjimo ir prognozės.

Norėdami pakeisti žemėlapį: spustelėkite ant žalios mygtukų su juodo kryžiaus žemyn,; žalią mygtuką su brūkšneliu, jei norite nutolinti; arba žalių rodyklių gretimoms žemėlapius.


METAR-TAF: